sensor_id;sensor_type;location;lat;lon;timestamp;P1;durP1;ratioP1;P2;durP2;ratioP2
51459;SDS011;37534;39.772;2.718;2022-11-14T07:13:58;5.55;;;3.92;;
51459;SDS011;37534;39.772;2.718;2022-11-14T07:19:12;5.38;;;4.32;;
51459;SDS011;37534;39.772;2.718;2022-11-14T07:21:38;4.50;;;4.10;;
51459;SDS011;37534;39.772;2.718;2022-11-14T07:24:04;7.07;;;3.80;;
51459;SDS011;37534;39.772;2.718;2022-11-14T07:26:30;9.68;;;4.53;;
51459;SDS011;37534;39.772;2.718;2022-11-14T07:28:55;4.97;;;4.30;;
51459;SDS011;37534;39.772;2.718;2022-11-14T07:31:21;3.88;;;3.50;;
51459;SDS011;37534;39.772;2.718;2022-11-14T07:33:47;7.63;;;4.15;;
51459;SDS011;37534;39.772;2.718;2022-11-14T07:36:12;6.78;;;5.07;;
51459;SDS011;37534;39.772;2.718;2022-11-14T07:38:39;5.25;;;4.75;;
51459;SDS011;37534;39.772;2.718;2022-11-14T07:41:06;9.57;;;5.22;;
51459;SDS011;37534;39.772;2.718;2022-11-14T07:43:34;7.45;;;4.78;;
51459;SDS011;37534;39.772;2.718;2022-11-14T07:46:00;8.48;;;5.68;;
51459;SDS011;37534;39.772;2.718;2022-11-14T07:48:33;8.60;;;5.57;;
51459;SDS011;37534;39.772;2.718;2022-11-14T07:51:02;9.43;;;5.82;;
51459;SDS011;37534;39.772;2.718;2022-11-14T07:53:30;10.43;;;5.20;;
51459;SDS011;37534;39.772;2.718;2022-11-14T07:56:00;8.80;;;5.32;;
51459;SDS011;37534;39.772;2.718;2022-11-14T07:58:27;6.47;;;5.78;;
51459;SDS011;37534;39.772;2.718;2022-11-14T08:00:53;14.88;;;8.90;;
51459;SDS011;37534;39.772;2.718;2022-11-14T08:03:18;13.55;;;12.15;;
51459;SDS011;37534;39.772;2.718;2022-11-14T08:05:44;17.65;;;11.57;;
51459;SDS011;37534;39.772;2.718;2022-11-14T08:08:09;13.93;;;12.43;;
51459;SDS011;37534;39.772;2.718;2022-11-14T08:10:35;15.82;;;11.50;;
51459;SDS011;37534;39.772;2.718;2022-11-14T08:13:01;15.50;;;10.48;;
51459;SDS011;37534;39.772;2.718;2022-11-14T08:15:28;17.80;;;12.68;;
51459;SDS011;37534;39.772;2.718;2022-11-14T08:17:58;16.55;;;10.45;;
51459;SDS011;37534;39.772;2.718;2022-11-14T08:20:24;23.85;;;11.82;;
51459;SDS011;37534;39.772;2.718;2022-11-14T08:22:51;21.58;;;13.23;;
51459;SDS011;37534;39.772;2.718;2022-11-14T08:25:17;28.88;;;11.00;;
51459;SDS011;37534;39.772;2.718;2022-11-14T08:27:43;28.83;;;14.32;;
51459;SDS011;37534;39.772;2.718;2022-11-14T08:30:08;26.55;;;16.90;;
51459;SDS011;37534;39.772;2.718;2022-11-14T08:35:03;29.15;;;19.25;;
51459;SDS011;37534;39.772;2.718;2022-11-14T08:37:29;37.10;;;22.92;;
51459;SDS011;37534;39.772;2.718;2022-11-14T08:39:54;37.92;;;26.20;;
51459;SDS011;37534;39.772;2.718;2022-11-14T08:42:20;59.53;;;40.05;;
51459;SDS011;37534;39.772;2.718;2022-11-14T08:44:46;49.72;;;24.70;;
51459;SDS011;37534;39.772;2.718;2022-11-14T08:47:11;44.90;;;28.80;;
51459;SDS011;37534;39.772;2.718;2022-11-14T08:49:37;29.27;;;21.05;;
51459;SDS011;37534;39.772;2.718;2022-11-14T08:52:02;30.27;;;19.00;;
51459;SDS011;37534;39.772;2.718;2022-11-14T08:54:28;19.92;;;13.93;;
51459;SDS011;37534;39.772;2.718;2022-11-14T08:56:53;28.08;;;12.88;;
51459;SDS011;37534;39.772;2.718;2022-11-14T08:59:19;30.65;;;18.50;;
51459;SDS011;37534;39.772;2.718;2022-11-14T09:01:44;25.65;;;16.95;;
51459;SDS011;37534;39.772;2.718;2022-11-14T09:04:10;27.17;;;17.33;;
51459;SDS011;37534;39.772;2.718;2022-11-14T09:06:36;26.55;;;15.27;;
51459;SDS011;37534;39.772;2.718;2022-11-14T09:09:01;24.83;;;14.88;;
51459;SDS011;37534;39.772;2.718;2022-11-14T09:11:27;25.80;;;15.00;;
51459;SDS011;37534;39.772;2.718;2022-11-14T09:13:52;21.88;;;15.35;;
51459;SDS011;37534;39.772;2.718;2022-11-14T09:16:18;22.10;;;8.27;;
51459;SDS011;37534;39.772;2.718;2022-11-14T09:18:43;10.82;;;5.28;;
51459;SDS011;37534;39.772;2.718;2022-11-14T09:21:09;8.13;;;4.50;;
51459;SDS011;37534;39.772;2.718;2022-11-14T09:23:35;18.88;;;7.38;;
51459;SDS011;37534;39.772;2.718;2022-11-14T09:26:03;13.48;;;4.07;;
51459;SDS011;37534;39.772;2.718;2022-11-14T09:28:30;7.10;;;3.65;;
51459;SDS011;37534;39.772;2.718;2022-11-14T09:31:03;10.57;;;4.07;;
51459;SDS011;37534;39.772;2.718;2022-11-14T09:33:30;4.78;;;3.40;;
51459;SDS011;37534;39.772;2.718;2022-11-14T09:35:57;7.68;;;3.50;;
51459;SDS011;37534;39.772;2.718;2022-11-14T09:38:24;11.60;;;7.75;;
51459;SDS011;37534;39.772;2.718;2022-11-14T09:40:51;15.93;;;12.38;;
51459;SDS011;37534;39.772;2.718;2022-11-14T09:51:47;42.00;;;33.22;;
51459;SDS011;37534;39.772;2.718;2022-11-14T09:54:19;26.23;;;20.17;;
51459;SDS011;37534;39.772;2.718;2022-11-14T09:56:48;13.30;;;10.77;;
51459;SDS011;37534;39.772;2.718;2022-11-14T09:59:14;27.88;;;22.65;;
51459;SDS011;37534;39.772;2.718;2022-11-14T10:06:58;14.70;;;11.68;;
51459;SDS011;37534;39.772;2.718;2022-11-14T10:12:35;9.93;;;3.72;;
51459;SDS011;37534;39.772;2.718;2022-11-14T10:15:46;8.68;;;2.70;;
51459;SDS011;37534;39.772;2.718;2022-11-14T10:26:26;5.93;;;2.58;;
51459;SDS011;37534;39.772;2.718;2022-11-14T10:31:42;5.63;;;2.65;;
51459;SDS011;37534;39.772;2.718;2022-11-14T10:34:21;4.75;;;2.35;;
51459;SDS011;37534;39.772;2.718;2022-11-14T10:39:51;4.20;;;2.03;;
51459;SDS011;37534;39.772;2.718;2022-11-14T10:42:22;2.47;;;1.85;;
51459;SDS011;37534;39.772;2.718;2022-11-14T10:44:57;4.15;;;2.42;;
51459;SDS011;37534;39.772;2.718;2022-11-14T10:47:41;5.47;;;2.28;;
51459;SDS011;37534;39.772;2.718;2022-11-14T10:50:17;3.92;;;2.17;;
51459;SDS011;37534;39.772;2.718;2022-11-14T10:52:45;3.90;;;2.30;;
51459;SDS011;37534;39.772;2.718;2022-11-14T10:55:17;6.78;;;2.58;;
51459;SDS011;37534;39.772;2.718;2022-11-14T10:57:46;4.63;;;2.10;;
51459;SDS011;37534;39.772;2.718;2022-11-14T11:00:16;6.07;;;1.90;;
51459;SDS011;37534;39.772;2.718;2022-11-14T11:05:21;3.92;;;1.80;;
51459;SDS011;37534;39.772;2.718;2022-11-14T11:07:48;7.10;;;2.33;;
51459;SDS011;37534;39.772;2.718;2022-11-14T11:10:34;8.90;;;2.60;;
51459;SDS011;37534;39.772;2.718;2022-11-14T11:13:32;5.90;;;2.45;;
51459;SDS011;37534;39.772;2.718;2022-11-14T11:16:04;6.25;;;2.05;;
51459;SDS011;37534;39.772;2.718;2022-11-14T11:18:34;8.70;;;3.08;;
51459;SDS011;37534;39.772;2.718;2022-11-14T11:23:34;6.13;;;3.00;;
51459;SDS011;37534;39.772;2.718;2022-11-14T11:26:06;5.60;;;3.03;;
51459;SDS011;37534;39.772;2.718;2022-11-14T11:28:40;5.07;;;2.53;;
51459;SDS011;37534;39.772;2.718;2022-11-14T11:31:09;10.73;;;2.78;;
51459;SDS011;37534;39.772;2.718;2022-11-14T11:33:36;3.15;;;2.50;;
51459;SDS011;37534;39.772;2.718;2022-11-14T11:36:04;4.90;;;2.40;;
51459;SDS011;37534;39.772;2.718;2022-11-14T11:38:36;6.07;;;2.55;;
51459;SDS011;37534;39.772;2.718;2022-11-14T11:43:53;9.82;;;4.53;;
51459;SDS011;37534;39.772;2.718;2022-11-14T11:49:10;9.52;;;3.33;;
51459;SDS011;37534;39.772;2.718;2022-11-14T11:51:55;16.27;;;3.22;;
51459;SDS011;37534;39.772;2.718;2022-11-14T11:55:12;4.28;;;2.42;;
51459;SDS011;37534;39.772;2.718;2022-11-14T11:57:56;11.45;;;3.15;;
51459;SDS011;37534;39.772;2.718;2022-11-14T12:00:24;8.57;;;3.00;;
51459;SDS011;37534;39.772;2.718;2022-11-14T12:02:51;5.05;;;2.53;;
51459;SDS011;37534;39.772;2.718;2022-11-14T12:08:00;12.38;;;2.78;;
51459;SDS011;37534;39.772;2.718;2022-11-14T12:10:29;3.97;;;2.13;;
51459;SDS011;37534;39.772;2.718;2022-11-14T12:13:09;7.05;;;2.35;;
51459;SDS011;37534;39.772;2.718;2022-11-14T12:15:59;7.57;;;2.95;;
51459;SDS011;37534;39.772;2.718;2022-11-14T12:18:48;8.40;;;2.53;;
51459;SDS011;37534;39.772;2.718;2022-11-14T12:29:39;8.90;;;3.13;;
51459;SDS011;37534;39.772;2.718;2022-11-14T12:32:10;4.40;;;2.28;;
51459;SDS011;37534;39.772;2.718;2022-11-14T12:34:40;4.82;;;1.88;;
51459;SDS011;37534;39.772;2.718;2022-11-14T12:40:17;7.13;;;2.45;;
51459;SDS011;37534;39.772;2.718;2022-11-14T12:42:46;5.97;;;1.88;;
51459;SDS011;37534;39.772;2.718;2022-11-14T12:50:50;10.80;;;2.17;;
51459;SDS011;37534;39.772;2.718;2022-11-14T13:03:48;5.18;;;1.90;;
51459;SDS011;37534;39.772;2.718;2022-11-14T13:11:42;3.97;;;1.85;;
51459;SDS011;37534;39.772;2.718;2022-11-14T13:14:28;17.48;;;2.97;;
51459;SDS011;37534;39.772;2.718;2022-11-14T13:17:22;4.57;;;2.10;;
51459;SDS011;37534;39.772;2.718;2022-11-14T13:23:04;4.97;;;2.22;;
51459;SDS011;37534;39.772;2.718;2022-11-14T13:33:44;10.23;;;2.95;;
51459;SDS011;37534;39.772;2.718;2022-11-14T13:36:16;3.22;;;2.00;;
51459;SDS011;37534;39.772;2.718;2022-11-14T13:50:18;8.48;;;2.20;;
51459;SDS011;37534;39.772;2.718;2022-11-14T13:52:52;5.57;;;2.10;;
51459;SDS011;37534;39.772;2.718;2022-11-14T13:55:21;7.53;;;2.28;;
51459;SDS011;37534;39.772;2.718;2022-11-14T14:03:44;5.57;;;2.15;;
51459;SDS011;37534;39.772;2.718;2022-11-14T14:11:21;7.03;;;2.03;;
51459;SDS011;37534;39.772;2.718;2022-11-14T14:16:51;5.57;;;2.17;;
51459;SDS011;37534;39.772;2.718;2022-11-14T14:32:24;8.07;;;2.20;;
51459;SDS011;37534;39.772;2.718;2022-11-14T14:34:49;8.55;;;2.83;;
51459;SDS011;37534;39.772;2.718;2022-11-14T14:39:58;7.40;;;2.60;;
51459;SDS011;37534;39.772;2.718;2022-11-14T14:42:25;5.20;;;2.50;;
51459;SDS011;37534;39.772;2.718;2022-11-14T14:44:54;3.58;;;1.88;;
51459;SDS011;37534;39.772;2.718;2022-11-14T14:47:39;8.43;;;2.75;;
51459;SDS011;37534;39.772;2.718;2022-11-14T14:50:12;9.50;;;2.88;;
51459;SDS011;37534;39.772;2.718;2022-11-14T14:52:41;8.65;;;2.88;;
51459;SDS011;37534;39.772;2.718;2022-11-14T14:55:16;10.68;;;2.85;;
51459;SDS011;37534;39.772;2.718;2022-11-14T14:57:46;11.35;;;2.58;;
51459;SDS011;37534;39.772;2.718;2022-11-14T15:02:43;4.78;;;2.28;;
51459;SDS011;37534;39.772;2.718;2022-11-14T15:05:09;8.73;;;2.60;;
51459;SDS011;37534;39.772;2.718;2022-11-14T15:07:34;15.20;;;2.50;;
51459;SDS011;37534;39.772;2.718;2022-11-14T15:10:03;5.82;;;2.10;;
51459;SDS011;37534;39.772;2.718;2022-11-14T15:12:32;6.53;;;1.85;;
51459;SDS011;37534;39.772;2.718;2022-11-14T15:14:59;8.30;;;2.90;;
51459;SDS011;37534;39.772;2.718;2022-11-14T15:17:25;7.43;;;2.80;;
51459;SDS011;37534;39.772;2.718;2022-11-14T15:19:51;6.20;;;2.88;;
51459;SDS011;37534;39.772;2.718;2022-11-14T15:24:43;6.35;;;2.75;;
51459;SDS011;37534;39.772;2.718;2022-11-14T15:27:26;6.53;;;2.00;;
51459;SDS011;37534;39.772;2.718;2022-11-14T15:29:53;6.20;;;2.20;;
51459;SDS011;37534;39.772;2.718;2022-11-14T15:35:06;8.60;;;1.77;;
51459;SDS011;37534;39.772;2.718;2022-11-14T15:40:38;11.20;;;2.45;;
51459;SDS011;37534;39.772;2.718;2022-11-14T15:48:51;11.18;;;2.75;;
51459;SDS011;37534;39.772;2.718;2022-11-14T15:51:17;6.15;;;2.75;;
51459;SDS011;37534;39.772;2.718;2022-11-14T15:53:44;3.38;;;2.03;;
51459;SDS011;37534;39.772;2.718;2022-11-14T15:56:12;10.45;;;3.22;;
51459;SDS011;37534;39.772;2.718;2022-11-14T15:58:38;3.45;;;2.35;;
51459;SDS011;37534;39.772;2.718;2022-11-14T16:01:03;4.03;;;2.33;;
51459;SDS011;37534;39.772;2.718;2022-11-14T16:03:30;6.85;;;2.95;;
51459;SDS011;37534;39.772;2.718;2022-11-14T16:05:55;4.25;;;3.05;;
51459;SDS011;37534;39.772;2.718;2022-11-14T16:08:21;7.20;;;2.83;;
51459;SDS011;37534;39.772;2.718;2022-11-14T16:10:47;4.40;;;2.35;;
51459;SDS011;37534;39.772;2.718;2022-11-14T16:13:12;7.88;;;3.25;;
51459;SDS011;37534;39.772;2.718;2022-11-14T16:15:40;12.98;;;3.35;;
51459;SDS011;37534;39.772;2.718;2022-11-14T16:18:06;5.63;;;2.38;;
51459;SDS011;37534;39.772;2.718;2022-11-14T16:20:35;7.18;;;2.80;;
51459;SDS011;37534;39.772;2.718;2022-11-14T16:23:03;3.33;;;1.98;;
51459;SDS011;37534;39.772;2.718;2022-11-14T16:25:30;7.03;;;2.75;;
51459;SDS011;37534;39.772;2.718;2022-11-14T16:27:56;7.63;;;2.47;;
51459;SDS011;37534;39.772;2.718;2022-11-14T16:30:23;7.13;;;2.95;;
51459;SDS011;37534;39.772;2.718;2022-11-14T16:32:50;9.32;;;2.95;;
51459;SDS011;37534;39.772;2.718;2022-11-14T16:35:17;8.13;;;2.53;;
51459;SDS011;37534;39.772;2.718;2022-11-14T16:37:44;9.02;;;2.92;;
51459;SDS011;37534;39.772;2.718;2022-11-14T16:40:15;11.50;;;4.15;;
51459;SDS011;37534;39.772;2.718;2022-11-14T16:42:43;13.00;;;2.90;;
51459;SDS011;37534;39.772;2.718;2022-11-14T16:45:09;10.60;;;3.25;;
51459;SDS011;37534;39.772;2.718;2022-11-14T16:47:50;5.55;;;3.08;;
51459;SDS011;37534;39.772;2.718;2022-11-14T16:50:16;7.00;;;2.78;;
51459;SDS011;37534;39.772;2.718;2022-11-14T16:52:42;6.55;;;3.03;;
51459;SDS011;37534;39.772;2.718;2022-11-14T16:55:09;6.03;;;3.20;;
51459;SDS011;37534;39.772;2.718;2022-11-14T16:57:35;11.20;;;3.75;;
51459;SDS011;37534;39.772;2.718;2022-11-14T17:00:04;8.52;;;3.47;;
51459;SDS011;37534;39.772;2.718;2022-11-14T17:02:31;10.00;;;3.90;;
51459;SDS011;37534;39.772;2.718;2022-11-14T17:04:57;13.65;;;4.05;;
51459;SDS011;37534;39.772;2.718;2022-11-14T17:07:23;11.63;;;3.42;;
51459;SDS011;37534;39.772;2.718;2022-11-14T17:09:48;5.43;;;2.80;;
51459;SDS011;37534;39.772;2.718;2022-11-14T17:12:14;12.95;;;4.07;;
51459;SDS011;37534;39.772;2.718;2022-11-14T17:14:39;5.40;;;4.00;;
51459;SDS011;37534;39.772;2.718;2022-11-14T17:17:05;7.13;;;4.07;;
51459;SDS011;37534;39.772;2.718;2022-11-14T17:19:30;6.78;;;3.65;;
51459;SDS011;37534;39.772;2.718;2022-11-14T17:21:56;5.80;;;3.35;;
51459;SDS011;37534;39.772;2.718;2022-11-14T17:24:21;9.00;;;3.72;;
51459;SDS011;37534;39.772;2.718;2022-11-14T17:26:47;10.63;;;4.13;;
51459;SDS011;37534;39.772;2.718;2022-11-14T17:29:13;24.45;;;4.00;;
51459;SDS011;37534;39.772;2.718;2022-11-14T17:31:38;13.10;;;4.50;;
51459;SDS011;37534;39.772;2.718;2022-11-14T17:34:05;8.18;;;4.30;;
51459;SDS011;37534;39.772;2.718;2022-11-14T17:36:33;8.43;;;4.68;;
51459;SDS011;37534;39.772;2.718;2022-11-14T17:38:59;13.45;;;4.80;;
51459;SDS011;37534;39.772;2.718;2022-11-14T17:41:25;11.98;;;4.50;;
51459;SDS011;37534;39.772;2.718;2022-11-14T17:43:51;11.32;;;4.53;;
51459;SDS011;37534;39.772;2.718;2022-11-14T17:46:20;15.70;;;4.68;;
51459;SDS011;37534;39.772;2.718;2022-11-14T17:48:46;10.10;;;4.30;;
51459;SDS011;37534;39.772;2.718;2022-11-14T17:51:13;8.13;;;4.18;;
51459;SDS011;37534;39.772;2.718;2022-11-14T17:53:40;4.78;;;3.80;;
51459;SDS011;37534;39.772;2.718;2022-11-14T17:56:06;9.23;;;4.50;;
51459;SDS011;37534;39.772;2.718;2022-11-14T17:58:36;8.80;;;4.20;;
51459;SDS011;37534;39.772;2.718;2022-11-14T18:01:07;9.63;;;6.32;;
51459;SDS011;37534;39.772;2.718;2022-11-14T18:03:37;14.00;;;4.90;;
51459;SDS011;37534;39.772;2.718;2022-11-14T18:06:06;10.75;;;5.53;;
51459;SDS011;37534;39.772;2.718;2022-11-14T18:08:36;19.95;;;4.97;;
51459;SDS011;37534;39.772;2.718;2022-11-14T18:11:03;16.83;;;5.25;;
51459;SDS011;37534;39.772;2.718;2022-11-14T18:13:30;11.15;;;4.95;;
51459;SDS011;37534;39.772;2.718;2022-11-14T18:16:03;9.18;;;4.43;;
51459;SDS011;37534;39.772;2.718;2022-11-14T18:18:30;7.32;;;5.00;;
51459;SDS011;37534;39.772;2.718;2022-11-14T18:20:57;7.00;;;5.70;;
51459;SDS011;37534;39.772;2.718;2022-11-14T18:23:22;15.18;;;7.90;;
51459;SDS011;37534;39.772;2.718;2022-11-14T18:25:49;13.85;;;6.10;;
51459;SDS011;37534;39.772;2.718;2022-11-14T18:28:14;10.52;;;7.03;;
51459;SDS011;37534;39.772;2.718;2022-11-14T18:30:40;18.30;;;7.45;;
51459;SDS011;37534;39.772;2.718;2022-11-14T18:33:07;8.75;;;7.47;;
51459;SDS011;37534;39.772;2.718;2022-11-14T18:35:33;10.90;;;7.40;;
51459;SDS011;37534;39.772;2.718;2022-11-14T18:37:58;16.20;;;6.93;;
51459;SDS011;37534;39.772;2.718;2022-11-14T18:40:24;17.08;;;8.63;;
51459;SDS011;37534;39.772;2.718;2022-11-14T18:42:49;12.40;;;7.97;;
51459;SDS011;37534;39.772;2.718;2022-11-14T18:45:15;18.85;;;7.20;;
51459;SDS011;37534;39.772;2.718;2022-11-14T18:47:40;12.18;;;5.93;;
51459;SDS011;37534;39.772;2.718;2022-11-14T18:50:06;23.98;;;6.60;;
51459;SDS011;37534;39.772;2.718;2022-11-14T18:52:32;12.85;;;7.35;;
51459;SDS011;37534;39.772;2.718;2022-11-14T18:54:57;9.73;;;6.55;;
51459;SDS011;37534;39.772;2.718;2022-11-14T18:57:23;8.90;;;7.00;;
51459;SDS011;37534;39.772;2.718;2022-11-14T18:59:48;9.73;;;7.47;;
51459;SDS011;37534;39.772;2.718;2022-11-14T19:02:14;9.52;;;7.15;;
51459;SDS011;37534;39.772;2.718;2022-11-14T19:04:39;16.60;;;7.05;;
51459;SDS011;37534;39.772;2.718;2022-11-14T19:07:05;13.77;;;6.82;;
51459;SDS011;37534;39.772;2.718;2022-11-14T19:09:30;11.18;;;6.88;;
51459;SDS011;37534;39.772;2.718;2022-11-14T19:11:56;14.38;;;7.05;;
51459;SDS011;37534;39.772;2.718;2022-11-14T19:14:40;14.07;;;6.88;;
51459;SDS011;37534;39.772;2.718;2022-11-14T19:17:06;16.38;;;7.82;;
51459;SDS011;37534;39.772;2.718;2022-11-14T19:19:32;14.48;;;8.23;;
51459;SDS011;37534;39.772;2.718;2022-11-14T19:21:57;10.55;;;7.35;;
51459;SDS011;37534;39.772;2.718;2022-11-14T19:24:23;18.20;;;8.63;;
51459;SDS011;37534;39.772;2.718;2022-11-14T19:26:48;14.35;;;8.32;;
51459;SDS011;37534;39.772;2.718;2022-11-14T19:29:14;9.55;;;6.63;;
51459;SDS011;37534;39.772;2.718;2022-11-14T19:31:40;21.65;;;8.63;;
51459;SDS011;37534;39.772;2.718;2022-11-14T19:34:06;12.32;;;7.22;;
51459;SDS011;37534;39.772;2.718;2022-11-14T19:36:33;10.77;;;6.80;;
51459;SDS011;37534;39.772;2.718;2022-11-14T19:38:59;8.45;;;6.60;;
51459;SDS011;37534;39.772;2.718;2022-11-14T19:41:26;15.65;;;8.82;;
51459;SDS011;37534;39.772;2.718;2022-11-14T19:43:53;8.50;;;7.25;;
51459;SDS011;37534;39.772;2.718;2022-11-14T19:46:20;21.50;;;6.65;;
51459;SDS011;37534;39.772;2.718;2022-11-14T19:48:47;7.90;;;6.07;;
51459;SDS011;37534;39.772;2.718;2022-11-14T19:51:14;7.38;;;5.30;;
51459;SDS011;37534;39.772;2.718;2022-11-14T19:53:43;20.65;;;5.72;;
51459;SDS011;37534;39.772;2.718;2022-11-14T19:56:14;18.30;;;5.85;;
51459;SDS011;37534;39.772;2.718;2022-11-14T19:58:41;12.33;;;6.33;;
51459;SDS011;37534;39.772;2.718;2022-11-14T20:01:09;15.30;;;7.18;;
51459;SDS011;37534;39.772;2.718;2022-11-14T20:03:36;13.77;;;6.95;;
51459;SDS011;37534;39.772;2.718;2022-11-14T20:06:03;12.00;;;5.72;;
51459;SDS011;37534;39.772;2.718;2022-11-14T20:08:29;13.00;;;10.02;;
51459;SDS011;37534;39.772;2.718;2022-11-14T20:10:59;11.00;;;6.30;;
51459;SDS011;37534;39.772;2.718;2022-11-14T20:13:29;10.30;;;5.28;;
51459;SDS011;37534;39.772;2.718;2022-11-14T20:15:59;9.40;;;5.50;;
51459;SDS011;37534;39.772;2.718;2022-11-14T20:18:31;9.48;;;5.22;;
51459;SDS011;37534;39.772;2.718;2022-11-14T20:21:00;12.82;;;5.03;;
51459;SDS011;37534;39.772;2.718;2022-11-14T20:23:26;8.98;;;5.22;;
51459;SDS011;37534;39.772;2.718;2022-11-14T20:25:52;18.25;;;4.63;;
51459;SDS011;37534;39.772;2.718;2022-11-14T20:28:18;7.90;;;5.28;;
51459;SDS011;37534;39.772;2.718;2022-11-14T20:30:43;9.60;;;5.65;;
51459;SDS011;37534;39.772;2.718;2022-11-14T20:33:09;11.93;;;4.60;;
51459;SDS011;37534;39.772;2.718;2022-11-14T20:35:35;9.55;;;4.68;;
51459;SDS011;37534;39.772;2.718;2022-11-14T20:38:05;11.85;;;4.97;;
51459;SDS011;37534;39.772;2.718;2022-11-14T20:40:31;19.23;;;4.88;;
51459;SDS011;37534;39.772;2.718;2022-11-14T20:42:58;14.65;;;5.18;;
51459;SDS011;37534;39.772;2.718;2022-11-14T20:45:24;7.13;;;4.45;;
51459;SDS011;37534;39.772;2.718;2022-11-14T20:47:51;19.90;;;5.13;;
51459;SDS011;37534;39.772;2.718;2022-11-14T20:50:17;8.50;;;4.88;;
51459;SDS011;37534;39.772;2.718;2022-11-14T20:52:44;6.38;;;4.38;;
51459;SDS011;37534;39.772;2.718;2022-11-14T20:55:10;10.60;;;5.60;;
51459;SDS011;37534;39.772;2.718;2022-11-14T20:57:36;8.60;;;6.25;;
51459;SDS011;37534;39.772;2.718;2022-11-14T21:00:03;9.73;;;6.93;;
51459;SDS011;37534;39.772;2.718;2022-11-14T21:02:33;12.98;;;7.53;;
51459;SDS011;37534;39.772;2.718;2022-11-14T21:04:59;8.73;;;6.40;;
51459;SDS011;37534;39.772;2.718;2022-11-14T21:07:25;11.73;;;7.60;;
51459;SDS011;37534;39.772;2.718;2022-11-14T21:09:51;14.20;;;6.95;;
51459;SDS011;37534;39.772;2.718;2022-11-14T21:12:36;10.43;;;7.25;;
51459;SDS011;37534;39.772;2.718;2022-11-14T21:15:02;8.70;;;5.57;;
51459;SDS011;37534;39.772;2.718;2022-11-14T21:17:29;8.45;;;6.28;;
51459;SDS011;37534;39.772;2.718;2022-11-14T21:19:56;13.02;;;7.88;;
51459;SDS011;37534;39.772;2.718;2022-11-14T21:22:22;11.68;;;7.03;;
51459;SDS011;37534;39.772;2.718;2022-11-14T21:24:48;10.95;;;6.45;;
51459;SDS011;37534;39.772;2.718;2022-11-14T21:27:28;13.50;;;6.45;;
51459;SDS011;37534;39.772;2.718;2022-11-14T21:29:54;9.57;;;6.55;;
51459;SDS011;37534;39.772;2.718;2022-11-14T21:32:19;9.75;;;6.00;;
51459;SDS011;37534;39.772;2.718;2022-11-14T21:34:45;10.25;;;5.05;;
51459;SDS011;37534;39.772;2.718;2022-11-14T21:37:10;13.35;;;5.80;;
51459;SDS011;37534;39.772;2.718;2022-11-14T21:39:36;9.90;;;5.18;;
51459;SDS011;37534;39.772;2.718;2022-11-14T21:42:01;8.88;;;5.32;;
51459;SDS011;37534;39.772;2.718;2022-11-14T21:44:27;7.40;;;4.65;;
51459;SDS011;37534;39.772;2.718;2022-11-14T21:46:52;11.35;;;4.63;;
51459;SDS011;37534;39.772;2.718;2022-11-14T21:49:18;10.50;;;4.05;;
51459;SDS011;37534;39.772;2.718;2022-11-14T21:51:43;7.28;;;4.65;;
51459;SDS011;37534;39.772;2.718;2022-11-14T21:54:09;8.50;;;4.70;;
51459;SDS011;37534;39.772;2.718;2022-11-14T21:56:35;7.93;;;4.03;;
51459;SDS011;37534;39.772;2.718;2022-11-14T21:59:02;10.55;;;4.68;;
51459;SDS011;37534;39.772;2.718;2022-11-14T22:01:39;9.63;;;4.28;;
51459;SDS011;37534;39.772;2.718;2022-11-14T22:04:24;10.15;;;3.83;;
51459;SDS011;37534;39.772;2.718;2022-11-14T22:06:49;13.30;;;4.72;;
51459;SDS011;37534;39.772;2.718;2022-11-14T22:09:15;7.75;;;4.15;;
51459;SDS011;37534;39.772;2.718;2022-11-14T22:11:40;7.47;;;4.07;;
51459;SDS011;37534;39.772;2.718;2022-11-14T22:14:06;13.07;;;4.72;;
51459;SDS011;37534;39.772;2.718;2022-11-14T22:16:32;9.60;;;4.38;;
51459;SDS011;37534;39.772;2.718;2022-11-14T22:18:58;9.25;;;3.58;;
51459;SDS011;37534;39.772;2.718;2022-11-14T22:21:24;14.00;;;4.57;;
51459;SDS011;37534;39.772;2.718;2022-11-14T22:23:52;11.35;;;4.57;;
51459;SDS011;37534;39.772;2.718;2022-11-14T22:26:18;8.05;;;3.92;;
51459;SDS011;37534;39.772;2.718;2022-11-14T22:28:44;7.45;;;3.38;;
51459;SDS011;37534;39.772;2.718;2022-11-14T22:31:14;12.15;;;4.00;;
51459;SDS011;37534;39.772;2.718;2022-11-14T22:33:44;6.90;;;3.67;;
51459;SDS011;37534;39.772;2.718;2022-11-14T22:36:11;15.32;;;3.92;;
51459;SDS011;37534;39.772;2.718;2022-11-14T22:38:37;8.82;;;3.88;;
51459;SDS011;37534;39.772;2.718;2022-11-14T22:41:04;7.38;;;3.47;;
51459;SDS011;37534;39.772;2.718;2022-11-14T22:43:32;7.53;;;3.78;;
51459;SDS011;37534;39.772;2.718;2022-11-14T22:45:58;8.15;;;3.92;;
51459;SDS011;37534;39.772;2.718;2022-11-14T22:48:25;10.43;;;3.03;;
51459;SDS011;37534;39.772;2.718;2022-11-14T22:50:55;8.13;;;3.70;;
51459;SDS011;37534;39.772;2.718;2022-11-14T22:53:32;18.90;;;4.55;;
51459;SDS011;37534;39.772;2.718;2022-11-14T22:55:59;12.25;;;5.28;;
51459;SDS011;37534;39.772;2.718;2022-11-14T22:58:29;13.82;;;4.57;;
51459;SDS011;37534;39.772;2.718;2022-11-14T23:00:55;6.80;;;3.55;;
51459;SDS011;37534;39.772;2.718;2022-11-14T23:03:21;11.43;;;3.67;;
51459;SDS011;37534;39.772;2.718;2022-11-14T23:05:47;15.75;;;4.28;;
51459;SDS011;37534;39.772;2.718;2022-11-14T23:08:14;9.02;;;4.00;;
51459;SDS011;37534;39.772;2.718;2022-11-14T23:10:40;10.13;;;4.15;;
51459;SDS011;37534;39.772;2.718;2022-11-14T23:13:07;19.80;;;4.70;;
51459;SDS011;37534;39.772;2.718;2022-11-14T23:15:32;9.65;;;3.75;;
51459;SDS011;37534;39.772;2.718;2022-11-14T23:17:58;10.15;;;3.97;;
51459;SDS011;37534;39.772;2.718;2022-11-14T23:20:24;8.48;;;3.58;;
51459;SDS011;37534;39.772;2.718;2022-11-14T23:22:51;10.50;;;3.67;;
51459;SDS011;37534;39.772;2.718;2022-11-14T23:25:17;10.27;;;4.45;;
51459;SDS011;37534;39.772;2.718;2022-11-14T23:27:44;10.40;;;3.63;;
51459;SDS011;37534;39.772;2.718;2022-11-14T23:30:10;8.25;;;3.97;;
51459;SDS011;37534;39.772;2.718;2022-11-14T23:32:36;19.08;;;5.18;;
51459;SDS011;37534;39.772;2.718;2022-11-14T23:35:01;13.68;;;4.65;;
51459;SDS011;37534;39.772;2.718;2022-11-14T23:37:27;11.45;;;4.65;;
51459;SDS011;37534;39.772;2.718;2022-11-14T23:39:52;9.93;;;4.55;;
51459;SDS011;37534;39.772;2.718;2022-11-14T23:42:18;7.03;;;3.72;;
51459;SDS011;37534;39.772;2.718;2022-11-14T23:44:43;11.07;;;4.50;;
51459;SDS011;37534;39.772;2.718;2022-11-14T23:47:09;8.77;;;3.78;;
51459;SDS011;37534;39.772;2.718;2022-11-14T23:49:34;18.40;;;4.93;;
51459;SDS011;37534;39.772;2.718;2022-11-14T23:52:00;14.48;;;4.45;;
51459;SDS011;37534;39.772;2.718;2022-11-14T23:54:25;8.38;;;4.20;;
51459;SDS011;37534;39.772;2.718;2022-11-14T23:56:51;14.95;;;4.80;;
51459;SDS011;37534;39.772;2.718;2022-11-14T23:59:16;9.70;;;4.53;;
